SBCJ/CKS METAR and TAF weather

Enter ICAO airport designator
Station Type Date Time Source
SBCJ METAR 2024/06/15 21:30 UTC NOAA

SBCJ 152130Z 14003KT 9999 FEW023 27/19 Q1018


Station Type Date Time Source
SBCJ Decoded METAR 2024/06/15 21:30 UTC NOAA

Carajas / Maraba, Brazil (SBCJ) 06-07S 050-00W
Jun 15, 2024 - 05:30 PM EDT / 2024.06.15 2130 UTC
Wind: from the SE (140 degrees) at 3 MPH (3 KT):0
Visibility: greater than 7 mile(s):0
Sky conditions: mostly clear
Temperature: 80 F (27 C)
Dew Point: 66 F (19 C)
Relative Humidity: 61%
Pressure (altimeter): 30.06 in. Hg (1018 hPa)
ob: SBCJ 152130Z 14003KT 9999 FEW023 27/19 Q1018
cycle: 21

Station Type Date Time Source
SBCJ TAF 2024/06/15 18:45 UTC NOAA